Nanchang, China
Current Conditions -  °F | °C
As of 3:00 PM on Wednesday 22 Oct 2014 (Local Time) from ZGHA Reporting Station
Scattered Clouds Scattered Clouds  
Wind Chill: 79°   Ceiling: Unl
Heat Index: 79°   Visibility: 6mi
Dew Point: 50°   Wind: 7mph
Humidity: 36%   Direction: NA
Pressure: 30.12"   Gusts: NA
Location:  28.68°N, 115.88°E
Report Text: ZGHA 220700Z VRB03MPS 9999 SCT040 26/10 Q1020 NOSIG
Loading
Personal Weather Stations






























Interactive Weather Map
Tropical Storm Tracking
New forecast layout! Learn more

10-Day Weather Forecast

Advertisements
Track Severe Weather on mobile